sensor_id;sensor_type;location;lat;lon;timestamp;pressure;altitude;pressure_sealevel;temperature
75811;BMP280;64449;50.016;19.954;2022-12-07T00:02:20;98254.15;;;5.34
75811;BMP280;64449;50.016;19.954;2022-12-07T00:04:46;98252.98;;;5.31
75811;BMP280;64449;50.016;19.954;2022-12-07T00:07:13;98251.96;;;5.27
75811;BMP280;64449;50.016;19.954;2022-12-07T00:09:38;98249.09;;;5.25
75811;BMP280;64449;50.016;19.954;2022-12-07T00:12:04;98244.92;;;5.26
75811;BMP280;64449;50.016;19.954;2022-12-07T00:14:29;98251.77;;;5.26
75811;BMP280;64449;50.016;19.954;2022-12-07T00:16:55;98247.42;;;5.27
75811;BMP280;64449;50.016;19.954;2022-12-07T00:19:20;98247.30;;;5.30
75811;BMP280;64449;50.016;19.954;2022-12-07T00:21:45;98250.77;;;5.34
75811;BMP280;64449;50.016;19.954;2022-12-07T00:24:11;98249.67;;;5.36
75811;BMP280;64449;50.016;19.954;2022-12-07T00:26:39;98251.04;;;5.38
75811;BMP280;64449;50.016;19.954;2022-12-07T00:29:21;98249.27;;;5.38
75811;BMP280;64449;50.016;19.954;2022-12-07T00:31:47;98247.82;;;5.38
75811;BMP280;64449;50.016;19.954;2022-12-07T00:34:15;98244.77;;;5.39
75811;BMP280;64449;50.016;19.954;2022-12-07T00:36:41;98246.15;;;5.40
75811;BMP280;64449;50.016;19.954;2022-12-07T00:39:06;98246.27;;;5.43
75811;BMP280;64449;50.016;19.954;2022-12-07T00:41:32;98246.80;;;5.46
75811;BMP280;64449;50.016;19.954;2022-12-07T00:43:57;98250.23;;;5.50
75811;BMP280;64449;50.016;19.954;2022-12-07T00:46:23;98251.09;;;5.51
75811;BMP280;64449;50.016;19.954;2022-12-07T00:48:50;98249.55;;;5.49
75811;BMP280;64449;50.016;19.954;2022-12-07T00:51:17;98246.55;;;5.50
75811;BMP280;64449;50.016;19.954;2022-12-07T00:53:44;98247.71;;;5.50
75811;BMP280;64449;50.016;19.954;2022-12-07T00:56:12;98243.66;;;5.50
75811;BMP280;64449;50.016;19.954;2022-12-07T00:58:38;98239.98;;;5.50
75811;BMP280;64449;50.016;19.954;2022-12-07T01:01:05;98240.64;;;5.50
75811;BMP280;64449;50.016;19.954;2022-12-07T01:03:31;98237.59;;;5.52
75811;BMP280;64449;50.016;19.954;2022-12-07T01:05:57;98235.25;;;5.52
75811;BMP280;64449;50.016;19.954;2022-12-07T01:08:25;98237.61;;;5.53
75811;BMP280;64449;50.016;19.954;2022-12-07T01:11:02;98232.68;;;5.54
75811;BMP280;64449;50.016;19.954;2022-12-07T01:13:28;98231.34;;;5.55
75811;BMP280;64449;50.016;19.954;2022-12-07T01:15:57;98230.32;;;5.56
75811;BMP280;64449;50.016;19.954;2022-12-07T01:18:23;98233.11;;;5.56
75811;BMP280;64449;50.016;19.954;2022-12-07T01:21:05;98228.12;;;5.56
75811;BMP280;64449;50.016;19.954;2022-12-07T01:23:33;98228.52;;;5.56
75811;BMP280;64449;50.016;19.954;2022-12-07T01:26:00;98227.70;;;5.56
75811;BMP280;64449;50.016;19.954;2022-12-07T01:28:26;98226.68;;;5.58
75811;BMP280;64449;50.016;19.954;2022-12-07T01:31:00;98225.63;;;5.60
75811;BMP280;64449;50.016;19.954;2022-12-07T01:33:32;98222.56;;;5.64
75811;BMP280;64449;50.016;19.954;2022-12-07T01:36:34;98222.54;;;5.67
75811;BMP280;64449;50.016;19.954;2022-12-07T01:39:02;98218.13;;;5.69
75811;BMP280;64449;50.016;19.954;2022-12-07T01:41:31;98218.87;;;5.69
75811;BMP280;64449;50.016;19.954;2022-12-07T01:46:56;98218.35;;;5.69
75811;BMP280;64449;50.016;19.954;2022-12-07T01:49:26;98218.53;;;5.69
75811;BMP280;64449;50.016;19.954;2022-12-07T01:52:41;98217.58;;;5.68
75811;BMP280;64449;50.016;19.954;2022-12-07T01:54:43;98218.48;;;5.67
75811;BMP280;64449;50.016;19.954;2022-12-07T01:57:10;98216.87;;;5.67
75811;BMP280;64449;50.016;19.954;2022-12-07T01:59:36;98218.46;;;5.66
75811;BMP280;64449;50.016;19.954;2022-12-07T02:02:04;98217.36;;;5.66
75811;BMP280;64449;50.016;19.954;2022-12-07T02:04:32;98218.05;;;5.66
75811;BMP280;64449;50.016;19.954;2022-12-07T02:06:57;98211.80;;;5.65
75811;BMP280;64449;50.016;19.954;2022-12-07T02:09:23;98211.13;;;5.64
75811;BMP280;64449;50.016;19.954;2022-12-07T02:11:48;98206.75;;;5.63
75811;BMP280;64449;50.016;19.954;2022-12-07T02:14:14;98207.45;;;5.61
75811;BMP280;64449;50.016;19.954;2022-12-07T02:22:25;98203.43;;;5.54
75811;BMP280;64449;50.016;19.954;2022-12-07T02:27:38;98205.11;;;5.54
75811;BMP280;64449;50.016;19.954;2022-12-07T02:35:20;98209.65;;;5.51
75811;BMP280;64449;50.016;19.954;2022-12-07T02:40:18;98205.68;;;5.42
75811;BMP280;64449;50.016;19.954;2022-12-07T02:42:48;98200.75;;;5.39
75811;BMP280;64449;50.016;19.954;2022-12-07T02:45:18;98203.64;;;5.35
75811;BMP280;64449;50.016;19.954;2022-12-07T02:47:48;98202.43;;;5.32
75811;BMP280;64449;50.016;19.954;2022-12-07T02:50:14;98199.51;;;5.32
75811;BMP280;64449;50.016;19.954;2022-12-07T02:52:40;98198.80;;;5.32
75811;BMP280;64449;50.016;19.954;2022-12-07T02:55:06;98196.27;;;5.33
75811;BMP280;64449;50.016;19.954;2022-12-07T03:00:09;98194.09;;;5.36
75811;BMP280;64449;50.016;19.954;2022-12-07T03:05:48;98183.88;;;5.38
75811;BMP280;64449;50.016;19.954;2022-12-07T03:14:21;98182.63;;;5.36
75811;BMP280;64449;50.016;19.954;2022-12-07T03:16:16;98184.99;;;5.33
75811;BMP280;64449;50.016;19.954;2022-12-07T03:18:51;98187.52;;;5.32
75811;BMP280;64449;50.016;19.954;2022-12-07T03:21:27;98184.98;;;5.31
75811;BMP280;64449;50.016;19.954;2022-12-07T03:23:58;98182.02;;;5.28
75811;BMP280;64449;50.016;19.954;2022-12-07T03:26:34;98181.79;;;5.26
75811;BMP280;64449;50.016;19.954;2022-12-07T03:29:06;98177.43;;;5.26
75811;BMP280;64449;50.016;19.954;2022-12-07T03:31:36;98175.67;;;5.25
75811;BMP280;64449;50.016;19.954;2022-12-07T03:34:12;98172.24;;;5.25
75811;BMP280;64449;50.016;19.954;2022-12-07T03:37:00;98173.61;;;5.25
75811;BMP280;64449;50.016;19.954;2022-12-07T03:39:46;98173.20;;;5.25
75811;BMP280;64449;50.016;19.954;2022-12-07T03:42:13;98169.50;;;5.26
75811;BMP280;64449;50.016;19.954;2022-12-07T03:44:38;98166.63;;;5.29
75811;BMP280;64449;50.016;19.954;2022-12-07T03:47:35;98164.61;;;5.31
75811;BMP280;64449;50.016;19.954;2022-12-07T03:53:07;98162.05;;;5.30
75811;BMP280;64449;50.016;19.954;2022-12-07T03:55:36;98159.33;;;5.28
75811;BMP280;64449;50.016;19.954;2022-12-07T03:58:10;98156.59;;;5.26
75811;BMP280;64449;50.016;19.954;2022-12-07T04:00:36;98154.05;;;5.25
75811;BMP280;64449;50.016;19.954;2022-12-07T04:03:02;98150.83;;;5.24
75811;BMP280;64449;50.016;19.954;2022-12-07T04:05:27;98149.30;;;5.23
75811;BMP280;64449;50.016;19.954;2022-12-07T04:07:53;98147.98;;;5.22
75811;BMP280;64449;50.016;19.954;2022-12-07T04:10:19;98149.58;;;5.23
75811;BMP280;64449;50.016;19.954;2022-12-07T04:12:44;98146.90;;;5.22
75811;BMP280;64449;50.016;19.954;2022-12-07T04:15:10;98148.98;;;5.20
75811;BMP280;64449;50.016;19.954;2022-12-07T04:17:36;98151.31;;;5.17
75811;BMP280;64449;50.016;19.954;2022-12-07T04:20:01;98154.58;;;5.15
75811;BMP280;64449;50.016;19.954;2022-12-07T04:22:27;98150.95;;;5.13
75811;BMP280;64449;50.016;19.954;2022-12-07T04:24:52;98150.41;;;5.10
75811;BMP280;64449;50.016;19.954;2022-12-07T04:27:18;98146.45;;;5.08
75811;BMP280;64449;50.016;19.954;2022-12-07T04:29:43;98146.14;;;5.06
75811;BMP280;64449;50.016;19.954;2022-12-07T04:32:08;98144.61;;;5.07
75811;BMP280;64449;50.016;19.954;2022-12-07T04:34:34;98144.86;;;5.08
75811;BMP280;64449;50.016;19.954;2022-12-07T04:36:59;98144.67;;;5.11
75811;BMP280;64449;50.016;19.954;2022-12-07T04:39:29;98143.73;;;5.13
75811;BMP280;64449;50.016;19.954;2022-12-07T04:41:56;98140.83;;;5.17
75811;BMP280;64449;50.016;19.954;2022-12-07T04:44:22;98138.05;;;5.20
75811;BMP280;64449;50.016;19.954;2022-12-07T04:46:48;98138.86;;;5.22
75811;BMP280;64449;50.016;19.954;2022-12-07T04:49:15;98141.77;;;5.24
75811;BMP280;64449;50.016;19.954;2022-12-07T04:51:41;98139.40;;;5.24
75811;BMP280;64449;50.016;19.954;2022-12-07T04:54:07;98143.13;;;5.27
75811;BMP280;64449;50.016;19.954;2022-12-07T04:56:32;98141.02;;;5.28
75811;BMP280;64449;50.016;19.954;2022-12-07T04:58:59;98139.27;;;5.29
75811;BMP280;64449;50.016;19.954;2022-12-07T05:01:25;98139.17;;;5.30
75811;BMP280;64449;50.016;19.954;2022-12-07T05:03:50;98140.36;;;5.32
75811;BMP280;64449;50.016;19.954;2022-12-07T05:06:16;98142.23;;;5.33
75811;BMP280;64449;50.016;19.954;2022-12-07T05:08:41;98141.54;;;5.33
75811;BMP280;64449;50.016;19.954;2022-12-07T05:11:09;98135.15;;;5.33
75811;BMP280;64449;50.016;19.954;2022-12-07T05:13:55;98136.00;;;5.33
75811;BMP280;64449;50.016;19.954;2022-12-07T05:16:20;98135.06;;;5.33
75811;BMP280;64449;50.016;19.954;2022-12-07T05:18:45;98132.38;;;5.35
75811;BMP280;64449;50.016;19.954;2022-12-07T05:21:10;98134.83;;;5.35
75811;BMP280;64449;50.016;19.954;2022-12-07T05:23:36;98138.69;;;5.37
75811;BMP280;64449;50.016;19.954;2022-12-07T05:26:01;98136.64;;;5.38
75811;BMP280;64449;50.016;19.954;2022-12-07T05:28:26;98136.16;;;5.39
75811;BMP280;64449;50.016;19.954;2022-12-07T05:30:52;98140.65;;;5.41
75811;BMP280;64449;50.016;19.954;2022-12-07T05:33:17;98143.52;;;5.45
75811;BMP280;64449;50.016;19.954;2022-12-07T05:35:42;98146.21;;;5.47
75811;BMP280;64449;50.016;19.954;2022-12-07T05:38:08;98149.48;;;5.49
75811;BMP280;64449;50.016;19.954;2022-12-07T05:40:33;98147.45;;;5.50
75811;BMP280;64449;50.016;19.954;2022-12-07T05:42:58;98149.03;;;5.51
75811;BMP280;64449;50.016;19.954;2022-12-07T05:45:23;98150.48;;;5.51
75811;BMP280;64449;50.016;19.954;2022-12-07T05:47:49;98154.05;;;5.50
75811;BMP280;64449;50.016;19.954;2022-12-07T05:50:14;98156.59;;;5.50
75811;BMP280;64449;50.016;19.954;2022-12-07T05:52:39;98158.64;;;5.51
75811;BMP280;64449;50.016;19.954;2022-12-07T05:55:05;98163.12;;;5.52
75811;BMP280;64449;50.016;19.954;2022-12-07T05:57:32;98160.07;;;5.54
75811;BMP280;64449;50.016;19.954;2022-12-07T05:59:57;98162.02;;;5.56
75811;BMP280;64449;50.016;19.954;2022-12-07T06:02:22;98163.97;;;5.58
75811;BMP280;64449;50.016;19.954;2022-12-07T06:04:47;98164.28;;;5.58
75811;BMP280;64449;50.016;19.954;2022-12-07T06:07:15;98165.62;;;5.58
75811;BMP280;64449;50.016;19.954;2022-12-07T06:09:41;98163.36;;;5.56
75811;BMP280;64449;50.016;19.954;2022-12-07T06:12:09;98163.86;;;5.53
75811;BMP280;64449;50.016;19.954;2022-12-07T06:14:54;98163.41;;;5.51
75811;BMP280;64449;50.016;19.954;2022-12-07T06:17:19;98163.22;;;5.51
75811;BMP280;64449;50.016;19.954;2022-12-07T06:19:45;98159.56;;;5.50
75811;BMP280;64449;50.016;19.954;2022-12-07T06:22:11;98162.48;;;5.48
75811;BMP280;64449;50.016;19.954;2022-12-07T06:24:37;98161.75;;;5.47
75811;BMP280;64449;50.016;19.954;2022-12-07T06:27:03;98167.60;;;5.48
75811;BMP280;64449;50.016;19.954;2022-12-07T06:29:29;98172.55;;;5.48
75811;BMP280;64449;50.016;19.954;2022-12-07T06:31:54;98171.87;;;5.47
75811;BMP280;64449;50.016;19.954;2022-12-07T06:34:21;98171.02;;;5.45
75811;BMP280;64449;50.016;19.954;2022-12-07T06:36:48;98168.05;;;5.45
75811;BMP280;64449;50.016;19.954;2022-12-07T06:39:20;98170.20;;;5.46
75811;BMP280;64449;50.016;19.954;2022-12-07T06:41:46;98164.89;;;5.46
75811;BMP280;64449;50.016;19.954;2022-12-07T06:44:12;98166.06;;;5.45
75811;BMP280;64449;50.016;19.954;2022-12-07T06:46:38;98167.66;;;5.43
75811;BMP280;64449;50.016;19.954;2022-12-07T06:49:04;98170.91;;;5.41
75811;BMP280;64449;50.016;19.954;2022-12-07T06:51:33;98172.34;;;5.39
75811;BMP280;64449;50.016;19.954;2022-12-07T06:54:04;98175.77;;;5.38
75811;BMP280;64449;50.016;19.954;2022-12-07T06:56:30;98177.68;;;5.38
75811;BMP280;64449;50.016;19.954;2022-12-07T06:58:55;98176.16;;;5.38
75811;BMP280;64449;50.016;19.954;2022-12-07T07:01:21;98177.80;;;5.38
75811;BMP280;64449;50.016;19.954;2022-12-07T07:03:46;98181.93;;;5.38
75811;BMP280;64449;50.016;19.954;2022-12-07T07:06:12;98185.54;;;5.36
75811;BMP280;64449;50.016;19.954;2022-12-07T07:08:39;98185.30;;;5.35
75811;BMP280;64449;50.016;19.954;2022-12-07T07:11:06;98186.58;;;5.34
75811;BMP280;64449;50.016;19.954;2022-12-07T07:13:31;98186.17;;;5.32
75811;BMP280;64449;50.016;19.954;2022-12-07T07:15:57;98184.02;;;5.32
75811;BMP280;64449;50.016;19.954;2022-12-07T07:18:23;98188.91;;;5.33
75811;BMP280;64449;50.016;19.954;2022-12-07T07:20:50;98191.48;;;5.32
75811;BMP280;64449;50.016;19.954;2022-12-07T07:23:15;98190.24;;;5.32
75811;BMP280;64449;50.016;19.954;2022-12-07T07:25:41;98188.74;;;5.31
75811;BMP280;64449;50.016;19.954;2022-12-07T07:28:06;98188.76;;;5.32
75811;BMP280;64449;50.016;19.954;2022-12-07T07:30:31;98187.38;;;5.32
75811;BMP280;64449;50.016;19.954;2022-12-07T07:33:01;98186.80;;;5.32
75811;BMP280;64449;50.016;19.954;2022-12-07T07:35:27;98191.50;;;5.31
75811;BMP280;64449;50.016;19.954;2022-12-07T07:37:53;98192.73;;;5.27
75811;BMP280;64449;50.016;19.954;2022-12-07T07:40:18;98191.46;;;5.26
75811;BMP280;64449;50.016;19.954;2022-12-07T07:42:47;98196.52;;;5.27
75811;BMP280;64449;50.016;19.954;2022-12-07T07:45:12;98189.63;;;5.27
75811;BMP280;64449;50.016;19.954;2022-12-07T07:47:38;98189.66;;;5.23
75811;BMP280;64449;50.016;19.954;2022-12-07T07:50:03;98188.06;;;5.21
75811;BMP280;64449;50.016;19.954;2022-12-07T07:52:30;98189.33;;;5.18
75811;BMP280;64449;50.016;19.954;2022-12-07T07:54:56;98195.16;;;5.16
75811;BMP280;64449;50.016;19.954;2022-12-07T07:57:21;98200.36;;;5.15
75811;BMP280;64449;50.016;19.954;2022-12-07T07:59:46;98201.69;;;5.14
75811;BMP280;64449;50.016;19.954;2022-12-07T08:02:13;98202.73;;;5.12
75811;BMP280;64449;50.016;19.954;2022-12-07T08:04:38;98200.70;;;5.10
75811;BMP280;64449;50.016;19.954;2022-12-07T08:07:04;98202.78;;;5.07
75811;BMP280;64449;50.016;19.954;2022-12-07T08:09:29;98204.40;;;5.04
75811;BMP280;64449;50.016;19.954;2022-12-07T08:11:54;98204.70;;;5.00
75811;BMP280;64449;50.016;19.954;2022-12-07T08:14:20;98211.04;;;4.97
75811;BMP280;64449;50.016;19.954;2022-12-07T08:16:45;98217.23;;;4.96
75811;BMP280;64449;50.016;19.954;2022-12-07T08:19:10;98222.32;;;4.97
75811;BMP280;64449;50.016;19.954;2022-12-07T08:21:36;98225.53;;;4.96
75811;BMP280;64449;50.016;19.954;2022-12-07T08:24:02;98225.27;;;4.96
75811;BMP280;64449;50.016;19.954;2022-12-07T08:26:27;98223.65;;;4.93
75811;BMP280;64449;50.016;19.954;2022-12-07T08:28:53;98223.40;;;4.91
75811;BMP280;64449;50.016;19.954;2022-12-07T08:31:18;98226.85;;;4.94
75811;BMP280;64449;50.016;19.954;2022-12-07T08:33:47;98232.73;;;4.94
75811;BMP280;64449;50.016;19.954;2022-12-07T08:36:14;98227.52;;;4.93
75811;BMP280;64449;50.016;19.954;2022-12-07T08:38:41;98228.05;;;4.90
75811;BMP280;64449;50.016;19.954;2022-12-07T08:41:07;98226.58;;;4.89
75811;BMP280;64449;50.016;19.954;2022-12-07T08:43:33;98230.42;;;4.89
75811;BMP280;64449;50.016;19.954;2022-12-07T08:48:26;98236.29;;;4.92
75811;BMP280;64449;50.016;19.954;2022-12-07T08:50:52;98237.27;;;4.94
75811;BMP280;64449;50.016;19.954;2022-12-07T08:53:17;98236.29;;;4.96
75811;BMP280;64449;50.016;19.954;2022-12-07T08:55:45;98234.34;;;5.00
75811;BMP280;64449;50.016;19.954;2022-12-07T08:58:11;98234.02;;;5.01
75811;BMP280;64449;50.016;19.954;2022-12-07T09:00:36;98237.10;;;5.03
75811;BMP280;64449;50.016;19.954;2022-12-07T09:03:02;98240.88;;;5.04
75811;BMP280;64449;50.016;19.954;2022-12-07T09:05:27;98243.20;;;5.06
75811;BMP280;64449;50.016;19.954;2022-12-07T09:07:57;98240.29;;;5.09
75811;BMP280;64449;50.016;19.954;2022-12-07T09:10:24;98240.63;;;5.11
75811;BMP280;64449;50.016;19.954;2022-12-07T09:12:51;98241.04;;;5.13
75811;BMP280;64449;50.016;19.954;2022-12-07T09:15:16;98243.50;;;5.16
75811;BMP280;64449;50.016;19.954;2022-12-07T09:17:41;98243.49;;;5.17
75811;BMP280;64449;50.016;19.954;2022-12-07T09:20:07;98246.83;;;5.20
75811;BMP280;64449;50.016;19.954;2022-12-07T09:22:33;98240.23;;;5.22
75811;BMP280;64449;50.016;19.954;2022-12-07T09:24:59;98238.59;;;5.23
75811;BMP280;64449;50.016;19.954;2022-12-07T09:27:25;98236.53;;;5.26
75811;BMP280;64449;50.016;19.954;2022-12-07T09:29:50;98232.02;;;5.28
75811;BMP280;64449;50.016;19.954;2022-12-07T09:32:15;98226.77;;;5.31
75811;BMP280;64449;50.016;19.954;2022-12-07T09:34:41;98226.67;;;5.36
75811;BMP280;64449;50.016;19.954;2022-12-07T09:37:06;98220.96;;;5.41
75811;BMP280;64449;50.016;19.954;2022-12-07T09:39:32;98222.77;;;5.46
75811;BMP280;64449;50.016;19.954;2022-12-07T09:41:59;98220.42;;;5.50
75811;BMP280;64449;50.016;19.954;2022-12-07T09:44:27;98215.57;;;5.52
75811;BMP280;64449;50.016;19.954;2022-12-07T09:46:54;98216.13;;;5.52
75811;BMP280;64449;50.016;19.954;2022-12-07T09:49:24;98217.74;;;5.51
75811;BMP280;64449;50.016;19.954;2022-12-07T09:52:17;98217.80;;;5.54
75811;BMP280;64449;50.016;19.954;2022-12-07T09:54:46;98218.04;;;5.56
75811;BMP280;64449;50.016;19.954;2022-12-07T09:57:12;98215.73;;;5.58
75811;BMP280;64449;50.016;19.954;2022-12-07T09:59:38;98214.25;;;5.61
75811;BMP280;64449;50.016;19.954;2022-12-07T10:02:24;98216.30;;;5.63
75811;BMP280;64449;50.016;19.954;2022-12-07T10:04:50;98213.58;;;5.65
75811;BMP280;64449;50.016;19.954;2022-12-07T10:07:16;98210.56;;;5.66
75811;BMP280;64449;50.016;19.954;2022-12-07T10:09:41;98209.56;;;5.65
75811;BMP280;64449;50.016;19.954;2022-12-07T10:12:11;98204.71;;;5.64
75811;BMP280;64449;50.016;19.954;2022-12-07T10:14:40;98201.27;;;5.65
75811;BMP280;64449;50.016;19.954;2022-12-07T10:17:33;98201.77;;;5.69
75811;BMP280;64449;50.016;19.954;2022-12-07T10:22:36;98198.64;;;5.72
75811;BMP280;64449;50.016;19.954;2022-12-07T10:25:09;98198.71;;;5.73
75811;BMP280;64449;50.016;19.954;2022-12-07T10:27:42;98196.52;;;5.73
75811;BMP280;64449;50.016;19.954;2022-12-07T10:30:07;98196.39;;;5.73
75811;BMP280;64449;50.016;19.954;2022-12-07T10:32:35;98192.17;;;5.73
75811;BMP280;64449;50.016;19.954;2022-12-07T10:37:48;98189.23;;;5.73
75811;BMP280;64449;50.016;19.954;2022-12-07T10:40:27;98187.66;;;5.73
75811;BMP280;64449;50.016;19.954;2022-12-07T10:43:37;98183.42;;;5.71
75811;BMP280;64449;50.016;19.954;2022-12-07T10:52:00;98173.58;;;5.73
75811;BMP280;64449;50.016;19.954;2022-12-07T11:00:08;98166.16;;;5.76
75811;BMP280;64449;50.016;19.954;2022-12-07T11:02:58;98165.35;;;5.77
75811;BMP280;64449;50.016;19.954;2022-12-07T11:11:14;98161.73;;;5.85
75811;BMP280;64449;50.016;19.954;2022-12-07T11:16:19;98157.74;;;5.93
75811;BMP280;64449;50.016;19.954;2022-12-07T11:21:31;98155.52;;;6.04
75811;BMP280;64449;50.016;19.954;2022-12-07T11:24:26;98153.55;;;6.10
75811;BMP280;64449;50.016;19.954;2022-12-07T11:27:09;98150.13;;;6.18
75811;BMP280;64449;50.016;19.954;2022-12-07T11:37:41;98145.82;;;6.50
75811;BMP280;64449;50.016;19.954;2022-12-07T11:40:29;98141.98;;;6.56
75811;BMP280;64449;50.016;19.954;2022-12-07T11:42:59;98142.70;;;6.67
75811;BMP280;64449;50.016;19.954;2022-12-07T11:45:29;98135.91;;;6.77
75811;BMP280;64449;50.016;19.954;2022-12-07T11:50:38;98135.61;;;6.91
75811;BMP280;64449;50.016;19.954;2022-12-07T11:56:17;98128.52;;;6.97
75811;BMP280;64449;50.016;19.954;2022-12-07T11:58:49;98128.36;;;6.97
75811;BMP280;64449;50.016;19.954;2022-12-07T12:03:54;98129.40;;;6.95
75811;BMP280;64449;50.016;19.954;2022-12-07T12:06:22;98125.89;;;6.97
75811;BMP280;64449;50.016;19.954;2022-12-07T12:09:11;98123.92;;;6.97
75811;BMP280;64449;50.016;19.954;2022-12-07T12:12:01;98121.90;;;6.98
75811;BMP280;64449;50.016;19.954;2022-12-07T12:14:59;98124.65;;;6.99
75811;BMP280;64449;50.016;19.954;2022-12-07T12:20:45;98119.02;;;7.01
75811;BMP280;64449;50.016;19.954;2022-12-07T12:25:48;98118.41;;;7.01
75811;BMP280;64449;50.016;19.954;2022-12-07T12:28:40;98111.39;;;6.97
75811;BMP280;64449;50.016;19.954;2022-12-07T12:31:16;98108.25;;;6.93
75811;BMP280;64449;50.016;19.954;2022-12-07T12:33:54;98104.66;;;6.88
75811;BMP280;64449;50.016;19.954;2022-12-07T12:39:09;98100.05;;;6.89
75811;BMP280;64449;50.016;19.954;2022-12-07T12:49:42;98096.37;;;6.86
75811;BMP280;64449;50.016;19.954;2022-12-07T12:55:00;98097.09;;;6.79
75811;BMP280;64449;50.016;19.954;2022-12-07T12:57:29;98097.77;;;6.76
75811;BMP280;64449;50.016;19.954;2022-12-07T13:02:35;98100.84;;;6.72
75811;BMP280;64449;50.016;19.954;2022-12-07T13:16:46;98105.48;;;6.54
75811;BMP280;64449;50.016;19.954;2022-12-07T13:18:41;98105.69;;;6.49
75811;BMP280;64449;50.016;19.954;2022-12-07T13:29:12;98102.80;;;6.39
75811;BMP280;64449;50.016;19.954;2022-12-07T13:31:57;98101.02;;;6.40
75811;BMP280;64449;50.016;19.954;2022-12-07T13:36:55;98096.50;;;6.42
75811;BMP280;64449;50.016;19.954;2022-12-07T13:39:23;98106.13;;;6.43
75811;BMP280;64449;50.016;19.954;2022-12-07T13:41:57;98107.98;;;6.43
75811;BMP280;64449;50.016;19.954;2022-12-07T13:44:24;98114.40;;;6.44
75811;BMP280;64449;50.016;19.954;2022-12-07T13:47:05;98116.17;;;6.45
75811;BMP280;64449;50.016;19.954;2022-12-07T13:49:37;98117.63;;;6.47
75811;BMP280;64449;50.016;19.954;2022-12-07T13:52:23;98122.95;;;6.48
75811;BMP280;64449;50.016;19.954;2022-12-07T13:55:16;98124.48;;;6.49
75811;BMP280;64449;50.016;19.954;2022-12-07T13:57:44;98125.61;;;6.53
75811;BMP280;64449;50.016;19.954;2022-12-07T14:00:29;98123.32;;;6.58
75811;BMP280;64449;50.016;19.954;2022-12-07T14:03:00;98120.64;;;6.63
75811;BMP280;64449;50.016;19.954;2022-12-07T14:05:32;98123.76;;;6.66
75811;BMP280;64449;50.016;19.954;2022-12-07T14:08:00;98123.29;;;6.68
75811;BMP280;64449;50.016;19.954;2022-12-07T14:10:35;98122.02;;;6.70
75811;BMP280;64449;50.016;19.954;2022-12-07T14:13:02;98124.95;;;6.70
75811;BMP280;64449;50.016;19.954;2022-12-07T14:15:30;98123.84;;;6.69
75811;BMP280;64449;50.016;19.954;2022-12-07T14:17:57;98124.50;;;6.69
75811;BMP280;64449;50.016;19.954;2022-12-07T14:20:33;98132.50;;;6.68
75811;BMP280;64449;50.016;19.954;2022-12-07T14:22:59;98136.10;;;6.64
75811;BMP280;64449;50.016;19.954;2022-12-07T14:25:45;98133.91;;;6.59
75811;BMP280;64449;50.016;19.954;2022-12-07T14:28:31;98129.91;;;6.53
75811;BMP280;64449;50.016;19.954;2022-12-07T14:30:58;98126.58;;;6.47
75811;BMP280;64449;50.016;19.954;2022-12-07T14:33:24;98132.55;;;6.43
75811;BMP280;64449;50.016;19.954;2022-12-07T14:35:49;98136.42;;;6.37
75811;BMP280;64449;50.016;19.954;2022-12-07T14:38:15;98136.09;;;6.31
75811;BMP280;64449;50.016;19.954;2022-12-07T14:40:40;98131.79;;;6.24
75811;BMP280;64449;50.016;19.954;2022-12-07T14:43:10;98135.40;;;6.16
75811;BMP280;64449;50.016;19.954;2022-12-07T14:45:36;98136.81;;;6.09
75811;BMP280;64449;50.016;19.954;2022-12-07T14:48:02;98133.89;;;6.05
75811;BMP280;64449;50.016;19.954;2022-12-07T14:50:28;98129.33;;;6.03
75811;BMP280;64449;50.016;19.954;2022-12-07T14:52:59;98127.55;;;6.01
75811;BMP280;64449;50.016;19.954;2022-12-07T14:55:29;98130.48;;;6.00
75811;BMP280;64449;50.016;19.954;2022-12-07T14:57:55;98132.79;;;5.98
75811;BMP280;64449;50.016;19.954;2022-12-07T15:00:23;98125.84;;;5.96
75811;BMP280;64449;50.016;19.954;2022-12-07T15:02:49;98129.89;;;5.93
75811;BMP280;64449;50.016;19.954;2022-12-07T15:05:16;98127.70;;;5.88
75811;BMP280;64449;50.016;19.954;2022-12-07T15:07:41;98132.23;;;5.85
75811;BMP280;64449;50.016;19.954;2022-12-07T15:10:14;98130.45;;;5.82
75811;BMP280;64449;50.016;19.954;2022-12-07T15:12:41;98136.82;;;5.79
75811;BMP280;64449;50.016;19.954;2022-12-07T15:15:06;98136.12;;;5.77
75811;BMP280;64449;50.016;19.954;2022-12-07T15:17:32;98136.54;;;5.75
75811;BMP280;64449;50.016;19.954;2022-12-07T15:19:57;98138.01;;;5.75
75811;BMP280;64449;50.016;19.954;2022-12-07T15:22:22;98134.20;;;5.76
75811;BMP280;64449;50.016;19.954;2022-12-07T15:24:47;98132.50;;;5.76
75811;BMP280;64449;50.016;19.954;2022-12-07T15:27:13;98139.81;;;5.77
75811;BMP280;64449;50.016;19.954;2022-12-07T15:29:38;98139.98;;;5.75
75811;BMP280;64449;50.016;19.954;2022-12-07T15:32:03;98141.67;;;5.73
75811;BMP280;64449;50.016;19.954;2022-12-07T15:34:29;98143.83;;;5.69
75811;BMP280;64449;50.016;19.954;2022-12-07T15:36:55;98143.20;;;5.64
75811;BMP280;64449;50.016;19.954;2022-12-07T15:39:21;98143.69;;;5.61
75811;BMP280;64449;50.016;19.954;2022-12-07T15:41:47;98149.63;;;5.58
75811;BMP280;64449;50.016;19.954;2022-12-07T15:44:12;98152.98;;;5.55
75811;BMP280;64449;50.016;19.954;2022-12-07T15:46:56;98156.52;;;5.50
75811;BMP280;64449;50.016;19.954;2022-12-07T15:49:22;98156.95;;;5.47
75811;BMP280;64449;50.016;19.954;2022-12-07T15:51:47;98160.15;;;5.42
75811;BMP280;64449;50.016;19.954;2022-12-07T15:54:25;98163.00;;;5.40
75811;BMP280;64449;50.016;19.954;2022-12-07T15:56:52;98170.09;;;5.38
75811;BMP280;64449;50.016;19.954;2022-12-07T15:59:17;98166.75;;;5.37
75811;BMP280;64449;50.016;19.954;2022-12-07T16:01:43;98168.56;;;5.36
75811;BMP280;64449;50.016;19.954;2022-12-07T16:04:09;98169.85;;;5.38
75811;BMP280;64449;50.016;19.954;2022-12-07T16:06:35;98169.77;;;5.42
75811;BMP280;64449;50.016;19.954;2022-12-07T16:09:01;98167.71;;;5.44
75811;BMP280;64449;50.016;19.954;2022-12-07T16:11:26;98170.24;;;5.47
75811;BMP280;64449;50.016;19.954;2022-12-07T16:13:52;98171.88;;;5.47
75811;BMP280;64449;50.016;19.954;2022-12-07T16:16:18;98173.02;;;5.49
75811;BMP280;64449;50.016;19.954;2022-12-07T16:18:45;98169.38;;;5.49
75811;BMP280;64449;50.016;19.954;2022-12-07T16:21:12;98173.32;;;5.50
75811;BMP280;64449;50.016;19.954;2022-12-07T16:23:38;98173.36;;;5.53